Time;durP1;ratioP1;P1;durP2;ratioP2;P2;SDS_P1;SDS_P2;PMS_P1;PMS_P2;Temp;Humidity;BMP_temperature;BMP_pressure;BME280_temperature;BME280_humidity;BME280_pressure;Samples;Min_cycle;Max_cycle;Signal;HPM_P1;HPM_P2
2022/07/23 00:00:31;;;;;;;2.03;1.30;;;14.50;99.90;;;;;;4918526;29;20036;-83
2022/07/23 00:02:57;;;;;;;2.05;0.70;;;14.40;99.90;;;;;;4921635;29;20044;-83
2022/07/23 00:05:22;;;;;;;2.08;0.93;;;14.50;99.90;;;;;;4920818;29;20036;-83
2022/07/23 00:07:48;;;;;;;2.70;1.27;;;14.50;99.90;;;;;;4920182;29;20044;-83
2022/07/23 00:10:14;;;;;;;1.85;0.75;;;14.50;99.90;;;;;;4917277;29;20463;-83
2022/07/23 00:12:40;;;;;;;3.58;1.48;;;14.40;99.90;;;;;;4920838;29;20139;-83
2022/07/23 00:15:07;;;;;;;4.50;1.00;;;14.30;99.90;;;;;;4904629;29;20048;-83
2022/07/23 00:17:33;;;;;;;1.77;0.90;;;14.30;99.90;;;;;;4903120;29;20044;-83
2022/07/23 00:19:59;;;;;;;3.13;1.50;;;14.30;99.90;;;;;;4918457;29;20582;-83
2022/07/23 00:22:25;;;;;;;2.97;1.02;;;14.20;99.90;;;;;;4911773;29;20040;-83
2022/07/23 00:24:50;;;;;;;3.90;1.40;;;14.20;99.90;;;;;;4902453;29;20063;-83
2022/07/23 00:27:16;;;;;;;2.58;1.17;;;14.20;99.90;;;;;;4902239;29;20288;-83
2022/07/23 00:29:41;;;;;;;2.03;1.15;;;14.20;99.90;;;;;;4917815;29;20036;-83
2022/07/23 00:32:07;;;;;;;2.38;0.98;;;14.20;99.90;;;;;;4915697;29;20047;-83
2022/07/23 00:34:33;;;;;;;2.65;0.98;;;14.10;99.90;;;;;;4903108;29;20123;-83
2022/07/23 00:36:58;;;;;;;4.50;1.40;;;14.00;99.90;;;;;;4917362;29;20418;-84
2022/07/23 00:39:24;;;;;;;2.30;1.13;;;14.00;99.90;;;;;;4917376;29;20623;-83
2022/07/23 00:41:50;;;;;;;4.38;1.60;;;14.00;99.90;;;;;;5055586;23;20059;-75
2022/07/23 00:45:13;;;;;;;4.53;1.20;;;14.00;99.90;;;;;;4886843;29;20120;-76
2022/07/23 00:55:49;;;;;;;4.97;1.13;;;13.70;99.90;;;;;;4903572;29;20055;-75
2022/07/23 00:58:16;;;;;;;4.85;1.77;;;13.70;99.90;;;;;;4883440;29;20063;-76
2022/07/23 01:00:45;;;;;;;3.22;1.95;;;13.60;99.90;;;;;;4896691;29;20130;-76
2022/07/23 01:03:13;;;;;;;3.28;1.80;;;13.60;99.90;;;;;;4903956;29;20051;-75
2022/07/23 01:05:52;;;;;;;2.90;1.80;;;13.50;99.90;;;;;;4889543;29;20059;-75
2022/07/23 01:08:31;;;;;;;2.95;1.40;;;13.50;99.90;;;;;;4873182;29;20046;-75
2022/07/23 01:11:47;;;;;;;7.18;2.80;;;13.50;99.90;;;;;;4903584;29;20046;-75
2022/07/23 01:18:44;;;;;;;5.40;1.45;;;13.40;99.90;;;;;;4914987;29;20072;-75
2022/07/23 01:29:16;;;;;;;2.30;1.42;;;13.30;99.90;;;;;;4896647;29;20523;-75
2022/07/23 01:32:14;;;;;;;6.20;2.25;;;13.20;99.90;;;;;;4967794;23;20052;-76
2022/07/23 01:35:00;;;;;;;6.07;1.83;;;13.10;99.90;;;;;;4925551;29;20046;-75
2022/07/23 01:37:26;;;;;;;4.88;1.98;;;13.20;99.90;;;;;;4889224;29;20051;-75
2022/07/23 01:39:53;;;;;;;4.32;2.15;;;13.10;99.90;;;;;;4906166;29;20131;-75
2022/07/23 01:42:20;;;;;;;4.85;2.65;;;13.00;99.90;;;;;;4877935;29;20052;-75
2022/07/23 01:44:46;;;;;;;6.88;2.58;;;13.00;99.90;;;;;;4899544;29;20096;-75
2022/07/23 01:47:16;;;;;;;3.95;1.70;;;13.00;99.90;;;;;;4904475;29;20040;-75
2022/07/23 01:49:47;;;;;;;3.95;2.35;;;13.00;99.90;;;;;;4888800;29;20076;-75
2022/07/23 01:52:14;;;;;;;5.10;2.33;;;13.00;99.90;;;;;;4887541;29;20040;-76
2022/07/23 01:54:43;;;;;;;7.32;2.70;;;12.90;99.90;;;;;;4887574;29;20088;-75
2022/07/23 01:57:17;;;;;;;2.67;1.75;;;12.90;99.90;;;;;;4902744;29;20036;-75
2022/07/23 01:59:59;;;;;;;7.68;3.20;;;12.90;99.90;;;;;;4888826;29;20060;-76
2022/07/23 02:02:27;;;;;;;4.82;2.53;;;12.80;99.90;;;;;;4885122;29;20491;-75
2022/07/23 02:04:54;;;;;;;3.58;2.00;;;12.70;99.90;;;;;;4885190;29;20503;-75
2022/07/23 02:07:21;;;;;;;5.55;2.28;;;12.70;99.90;;;;;;4886531;29;20035;-76
2022/07/23 02:09:46;;;;;;;4.28;2.15;;;12.60;99.90;;;;;;4888692;29;20411;-76
2022/07/23 02:12:14;;;;;;;3.60;1.92;;;12.70;99.90;;;;;;4902948;29;20071;-76
2022/07/23 02:14:40;;;;;;;8.07;2.13;;;12.60;99.90;;;;;;4888074;29;20048;-76
2022/07/23 02:17:12;;;;;;;5.57;2.25;;;12.60;99.90;;;;;;4904023;29;20467;-75
2022/07/23 02:22:39;;;;;;;4.32;1.48;;;12.50;99.90;;;;;;4984955;23;20083;-75
2022/07/23 02:25:15;;;;;;;2.45;1.55;;;12.40;99.90;;;;;;4910631;29;20044;-75
2022/07/23 02:27:54;;;;;;;3.22;1.70;;;12.20;99.90;;;;;;4925779;29;20059;-75
2022/07/23 02:34:17;;;;;;;2.10;1.02;;;12.10;99.90;;;;;;4923557;29;20054;-76
2022/07/23 02:36:52;;;;;;;2.95;0.88;;;12.10;99.90;;;;;;4908790;29;20072;-75
2022/07/23 02:42:12;;;;;;;4.00;1.55;;;11.90;99.90;;;;;;4976539;23;20190;-75
2022/07/23 02:45:12;;;;;;;1.55;1.02;;;11.90;99.90;;;;;;4894833;29;20051;-76
2022/07/23 02:47:42;;;;;;;2.88;1.33;;;11.80;99.90;;;;;;4916687;29;20089;-75
2022/07/23 02:50:09;;;;;;;2.13;1.00;;;11.80;99.90;;;;;;4911082;29;20055;-75
2022/07/23 02:52:35;;;;;;;2.42;1.27;;;11.70;99.90;;;;;;4889614;29;20040;-75
2022/07/23 02:55:04;;;;;;;2.70;1.50;;;11.60;99.90;;;;;;4888513;29;20039;-75
2022/07/23 02:57:30;;;;;;;4.75;1.63;;;11.70;99.90;;;;;;4889131;29;20524;-75
2022/07/23 03:00:43;;;;;;;2.72;1.67;;;11.70;99.90;;;;;;4901464;29;20398;-76
2022/07/23 03:03:48;;;;;;;4.10;1.38;;;11.80;99.90;;;;;;4926047;29;20047;-75
2022/07/23 03:17:11;;;;;;;3.85;2.05;;;11.70;99.90;;;;;;4911978;29;20422;-75
2022/07/23 03:19:38;;;;;;;3.10;1.08;;;11.50;99.90;;;;;;4889203;29;20040;-75
2022/07/23 03:22:05;;;;;;;4.45;2.22;;;11.50;99.90;;;;;;4888836;29;20064;-75
2022/07/23 03:27:20;;;;;;;;;;;11.40;99.90;;;;;;4906749;29;20044;-76
2022/07/23 03:30:05;;;;;;;6.65;2.47;;;11.30;99.90;;;;;;4886598;29;19919;-75
2022/07/23 03:32:32;;;;;;;3.07;1.67;;;11.30;99.90;;;;;;4890936;29;20050;-75
2022/07/23 03:35:03;;;;;;;3.72;2.15;;;11.30;99.90;;;;;;4905783;29;20040;-75
2022/07/23 03:37:33;;;;;;;4.80;1.60;;;11.30;99.90;;;;;;4896366;29;20076;-75
2022/07/23 03:40:01;;;;;;;5.78;2.10;;;11.40;99.90;;;;;;4873733;29;20451;-75
2022/07/23 03:42:41;;;;;;;1.80;1.33;;;11.30;99.90;;;;;;4889736;29;20059;-76
2022/07/23 03:45:07;;;;;;;7.47;2.53;;;11.30;99.90;;;;;;4875107;29;20040;-74
2022/07/23 03:47:46;;;;;;;4.40;1.83;;;11.20;99.90;;;;;;4899744;29;20048;-74
2022/07/23 03:50:27;;;;;;;4.10;1.63;;;11.20;99.90;;;;;;4907542;23;20048;-86
2022/07/23 03:52:53;;;;;;;3.50;1.60;;;11.20;99.90;;;;;;4881608;29;20048;-85
2022/07/23 03:55:19;;;;;;;6.28;2.53;;;11.30;99.90;;;;;;4881196;29;20175;-85
2022/07/23 03:57:44;;;;;;;4.93;2.28;;;11.30;99.90;;;;;;4886443;29;20079;-86
2022/07/23 04:00:12;;;;;;;5.32;2.33;;;11.40;99.90;;;;;;4891794;29;20261;-86
2022/07/23 04:02:51;;;;;;;8.37;3.83;;;11.40;99.90;;;;;;5016439;23;20019;-75
2022/07/23 04:05:17;;;;;;;4.63;3.10;;;11.50;99.90;;;;;;4870141;29;20049;-76
2022/07/23 04:07:43;;;;;;;5.25;2.65;;;11.60;99.90;;;;;;4874469;29;20048;-75
2022/07/23 04:10:10;;;;;;;5.25;2.85;;;11.60;99.90;;;;;;4882705;29;20044;-74
2022/07/23 04:12:36;;;;;;;4.18;2.35;;;11.60;99.90;;;;;;4909809;23;20084;-85
2022/07/23 04:15:02;;;;;;;7.75;3.47;;;11.60;99.90;;;;;;4899254;29;20629;-85
2022/07/23 04:17:28;;;;;;;4.90;2.90;;;11.60;99.90;;;;;;4898714;29;20072;-85
2022/07/23 04:19:54;;;;;;;5.75;2.63;;;11.60;99.90;;;;;;4898888;29;20056;-85
2022/07/23 04:22:19;;;;;;;4.70;2.10;;;11.60;99.90;;;;;;4899399;29;20054;-85
2022/07/23 04:24:45;;;;;;;6.93;3.25;;;11.60;99.90;;;;;;4904504;29;20059;-85
2022/07/23 04:27:11;;;;;;;6.43;2.67;;;11.60;99.90;;;;;;4903323;29;20208;-85
2022/07/23 04:29:36;;;;;;;7.38;3.65;;;11.60;99.90;;;;;;4913495;29;20044;-85
2022/07/23 04:32:02;;;;;;;7.78;3.33;;;11.60;99.90;;;;;;4899749;29;20044;-85
2022/07/23 04:34:27;;;;;;;7.28;3.30;;;11.70;99.90;;;;;;4883955;29;20104;-84
2022/07/23 04:36:53;;;;;;;4.47;2.42;;;11.70;99.90;;;;;;4893858;29;20510;-85
2022/07/23 04:39:19;;;;;;;5.80;2.72;;;11.80;99.90;;;;;;4906289;29;20055;-85
2022/07/23 04:41:45;;;;;;;5.80;2.60;;;11.80;99.90;;;;;;4898203;29;20051;-84
2022/07/23 04:44:11;;;;;;;4.07;2.40;;;11.80;99.90;;;;;;4899369;29;20036;-85
2022/07/23 04:46:36;;;;;;;6.65;3.63;;;11.90;99.90;;;;;;4898874;29;20213;-84
2022/07/23 04:49:02;;;;;;;7.25;3.17;;;11.90;99.90;;;;;;4907126;29;20098;-85
2022/07/23 04:51:28;;;;;;;4.68;3.40;;;11.90;99.90;;;;;;4918107;29;20391;-85
2022/07/23 04:53:54;;;;;;;6.15;3.70;;;12.00;99.90;;;;;;4918142;29;20527;-85
2022/07/23 04:56:20;;;;;;;4.65;2.63;;;12.00;99.90;;;;;;4905012;29;20036;-85
2022/07/23 04:58:45;;;;;;;6.32;3.40;;;12.10;99.90;;;;;;4906607;29;20040;-85
2022/07/23 05:01:11;;;;;;;4.72;3.28;;;12.20;99.90;;;;;;4915934;29;20127;-85
2022/07/23 05:03:36;;;;;;;5.82;4.05;;;12.30;99.90;;;;;;4917079;29;20040;-85
2022/07/23 05:06:03;;;;;;;8.15;4.40;;;12.50;99.90;;;;;;4909885;29;20577;-85
2022/07/23 05:08:28;;;;;;;9.38;3.15;;;12.60;99.90;;;;;;4908168;29;20193;-84
2022/07/23 05:10:54;;;;;;;5.85;3.83;;;12.70;99.90;;;;;;4913842;29;20127;-84
2022/07/23 05:13:20;;;;;;;7.18;3.28;;;12.80;99.90;;;;;;4918138;29;20070;-84
2022/07/23 05:15:46;;;;;;;7.18;2.90;;;12.90;99.90;;;;;;4909237;29;20039;-84
2022/07/23 05:18:12;;;;;;;6.40;3.20;;;13.00;99.90;;;;;;4896889;29;20687;-84
2022/07/23 05:20:38;;;;;;;9.00;3.55;;;13.10;99.90;;;;;;4879559;29;20033;-84
2022/07/23 05:23:03;;;;;;;4.72;2.67;;;13.20;99.90;;;;;;4895699;29;20119;-84
2022/07/23 05:25:29;;;;;;;3.67;2.42;;;13.20;99.90;;;;;;4898287;29;20047;-84
2022/07/23 05:27:54;;;;;;;7.03;2.40;;;13.40;99.90;;;;;;4895183;29;20044;-84
2022/07/23 05:30:20;;;;;;;4.47;2.17;;;13.50;99.90;;;;;;4891641;29;20040;-84
2022/07/23 05:32:46;;;;;;;5.65;2.22;;;13.50;99.90;;;;;;4897569;29;20046;-85
2022/07/23 05:35:12;;;;;;;4.50;2.42;;;13.60;99.90;;;;;;4891224;29;20047;-84
2022/07/23 05:37:37;;;;;;;5.20;2.38;;;13.70;99.90;;;;;;4893554;29;20108;-84
2022/07/23 05:40:07;;;;;;;6.30;2.75;;;13.70;99.90;;;;;;4894044;29;20441;-85
2022/07/23 05:42:34;;;;;;;4.53;2.00;;;13.80;99.90;;;;;;4893833;29;20040;-84
2022/07/23 05:44:59;;;;;;;5.05;2.05;;;13.90;99.90;;;;;;4905439;29;20044;-84
2022/07/23 05:47:25;;;;;;;3.85;2.47;;;14.00;99.90;;;;;;4899646;29;20062;-84
2022/07/23 05:49:50;;;;;;;10.45;2.63;;;14.10;99.90;;;;;;4896857;29;20048;-84
2022/07/23 05:52:16;;;;;;;7.45;2.58;;;14.20;99.90;;;;;;4897421;29;20040;-84
2022/07/23 05:54:41;;;;;;;5.63;2.05;;;14.30;99.90;;;;;;4897811;29;20040;-84
2022/07/23 05:57:07;;;;;;;3.78;1.65;;;14.40;99.90;;;;;;4889625;29;20410;-84
2022/07/23 05:59:33;;;;;;;4.53;1.75;;;14.50;99.90;;;;;;4909224;29;20066;-84
2022/07/23 06:01:58;;;;;;;8.20;2.92;;;14.60;99.90;;;;;;4902824;29;20048;-85
2022/07/23 06:04:24;;;;;;;5.35;1.70;;;14.60;99.90;;;;;;4905881;29;20032;-85
2022/07/23 06:06:49;;;;;;;4.25;1.52;;;14.70;99.90;;;;;;4914119;29;20051;-84
2022/07/23 06:09:15;;;;;;;7.97;1.88;;;14.70;99.90;;;;;;4902500;29;20048;-84
2022/07/23 06:11:41;;;;;;;4.43;1.50;;;14.80;99.90;;;;;;4896826;29;20050;-84
2022/07/23 06:14:06;;;;;;;2.47;1.55;;;14.90;99.90;;;;;;4906273;29;20055;-84
2022/07/23 06:16:32;;;;;;;3.95;2.03;;;14.90;99.90;;;;;;4912036;29;20087;-84
2022/07/23 06:18:57;;;;;;;2.28;1.08;;;15.00;99.90;;;;;;4919293;29;20063;-84
2022/07/23 06:21:23;;;;;;;5.03;1.60;;;15.20;99.90;;;;;;4921563;29;20091;-84
2022/07/23 06:23:49;;;;;;;2.20;1.13;;;15.30;99.90;;;;;;4915672;29;20134;-84
2022/07/23 06:26:14;;;;;;;2.00;1.00;;;15.40;99.90;;;;;;4901286;29;20049;-83
2022/07/23 06:28:40;;;;;;;2.70;0.70;;;15.50;99.90;;;;;;4909798;29;20051;-84
2022/07/23 06:31:05;;;;;;;1.88;0.93;;;15.60;99.90;;;;;;4925210;29;20379;-84
2022/07/23 06:33:31;;;;;;;1.70;0.85;;;15.60;99.90;;;;;;4907592;29;20035;-84
2022/07/23 06:35:56;;;;;;;3.65;0.68;;;15.70;99.90;;;;;;4914985;29;20047;-83
2022/07/23 06:38:22;;;;;;;2.60;1.10;;;15.80;99.90;;;;;;4908026;29;20054;-81
2022/07/23 06:40:48;;;;;;;2.20;0.82;;;15.90;99.90;;;;;;4922880;29;20532;-84
2022/07/23 06:43:13;;;;;;;3.55;0.70;;;16.00;99.90;;;;;;4896867;29;20575;-84
2022/07/23 06:45:39;;;;;;;1.73;0.50;;;16.20;99.90;;;;;;4914966;29;20454;-84
2022/07/23 06:48:05;;;;;;;2.20;0.50;;;16.50;99.90;;;;;;4914586;29;20506;-83
2022/07/23 06:50:31;;;;;;;2.10;0.50;;;16.80;99.90;;;;;;4922364;29;20106;-84
2022/07/23 06:52:56;;;;;;;1.65;0.50;;;17.10;99.90;;;;;;4892342;29;20088;-84
2022/07/23 06:55:22;;;;;;;7.22;1.45;;;17.40;99.90;;;;;;4913467;29;20047;-83
2022/07/23 06:57:48;;;;;;;1.42;0.40;;;17.60;99.90;;;;;;4921232;29;20043;-84
2022/07/23 07:00:14;;;;;;;1.60;0.50;;;17.80;99.90;;;;;;4922504;29;20048;-84
2022/07/23 07:02:39;;;;;;;4.40;0.40;;;17.90;99.90;;;;;;4905842;29;20123;-82
2022/07/23 07:05:05;;;;;;;5.22;1.20;;;18.00;99.90;;;;;;4899803;29;20040;-83
2022/07/23 07:07:31;;;;;;;2.67;0.70;;;18.10;99.90;;;;;;4899977;29;20147;-83
2022/07/23 07:09:56;;;;;;;0.73;0.40;;;18.30;99.90;;;;;;4897444;29;20044;-85
2022/07/23 07:12:22;;;;;;;3.10;0.20;;;18.40;99.90;;;;;;4897215;29;20139;-85
2022/07/23 07:14:48;;;;;;;2.38;0.40;;;18.40;99.90;;;;;;4904642;29;20094;-84
2022/07/23 07:17:13;;;;;;;1.90;0.40;;;18.40;99.90;;;;;;4906960;29;20036;-85
2022/07/23 07:19:39;;;;;;;2.05;0.20;;;18.50;99.90;;;;;;4911898;29;20075;-85
2022/07/23 07:22:04;;;;;;;4.45;0.50;;;18.70;99.90;;;;;;4915428;29;20036;-85
2022/07/23 07:24:30;;;;;;;3.15;0.80;;;18.90;99.90;;;;;;4904646;29;20035;-82
2022/07/23 07:26:55;;;;;;;1.52;0.30;;;19.20;99.90;;;;;;4902421;29;20398;-83
2022/07/23 07:29:21;;;;;;;0.75;0.20;;;19.30;99.90;;;;;;4910377;29;20521;-83
2022/07/23 07:31:46;;;;;;;1.42;0.20;;;19.60;99.90;;;;;;4909130;29;20322;-83
2022/07/23 07:34:12;;;;;;;1.27;0.20;;;19.80;99.90;;;;;;4919153;29;20502;-84
2022/07/23 07:36:38;;;;;;;0.60;0.30;;;20.10;99.90;;;;;;4921228;29;20043;-83
2022/07/23 07:39:04;;;;;;;1.20;0.52;;;20.50;99.90;;;;;;4920624;29;20079;-83
2022/07/23 07:41:31;;;;;;;1.13;0.20;;;20.70;99.90;;;;;;4912313;29;20491;-83
2022/07/23 07:43:56;;;;;;;0.40;0.30;;;20.60;99.90;;;;;;4917786;29;20466;-83
2022/07/23 07:46:23;;;;;;;0.90;0.13;;;20.30;99.90;;;;;;4921252;29;20074;-83
2022/07/23 07:48:50;;;;;;;0.95;0.47;;;20.00;99.90;;;;;;4920954;29;20043;-80
2022/07/23 07:51:15;;;;;;;0.30;0.10;;;19.80;99.90;;;;;;4913107;29;20051;-80
2022/07/23 07:53:41;;;;;;;0.52;0.10;;;19.60;99.90;;;;;;4899816;29;20040;-81
2022/07/23 07:56:07;;;;;;;2.20;0.10;;;19.30;99.90;;;;;;4911761;29;20050;-82
2022/07/23 07:58:32;;;;;;;1.67;0.10;;;19.20;99.90;;;;;;4902313;29;20355;-81
2022/07/23 08:00:58;;;;;;;0.85;0.13;;;19.60;99.90;;;;;;4909736;29;20039;-80
2022/07/23 08:03:23;;;;;;;0.40;0.10;;;20.10;99.90;;;;;;4914889;29;20036;-82
2022/07/23 08:05:49;;;;;;;2.85;0.20;;;20.10;99.90;;;;;;4911274;29;20517;-83
2022/07/23 08:08:15;;;;;;;4.88;0.30;;;20.30;99.90;;;;;;4905620;29;20406;-81
2022/07/23 08:10:41;;;;;;;0.68;0.40;;;20.30;99.90;;;;;;4907784;29;20059;-80
2022/07/23 08:13:06;;;;;;;1.85;0.20;;;20.30;99.90;;;;;;4909550;29;20044;-80
2022/07/23 08:15:32;;;;;;;0.80;0.30;;;20.20;99.90;;;;;;4913646;29;20043;-80
2022/07/23 08:17:58;;;;;;;0.65;0.10;;;20.30;99.90;;;;;;4901457;29;20062;-79
2022/07/23 08:20:25;;;;;;;0.60;0.10;;;20.40;99.90;;;;;;4902190;29;20040;-80
2022/07/23 08:22:55;;;;;;;0.38;0.05;;;20.60;99.90;;;;;;4911789;29;20040;-80
2022/07/23 08:25:26;;;;;;;26.55;18.42;;;20.80;99.90;;;;;;4915562;29;20131;-80
2022/07/23 08:27:52;;;;;;;26.88;16.13;;;20.90;99.90;;;;;;4906809;29;20044;-80
2022/07/23 08:30:19;;;;;;;23.58;12.80;;;20.80;99.90;;;;;;4909581;29;20538;-80
2022/07/23 08:32:49;;;;;;;96.85;71.03;;;20.70;99.90;;;;;;4909829;29;20099;-79
2022/07/23 08:35:15;;;;;;;2.50;1.95;;;20.70;99.90;;;;;;4917745;29;20533;-79
2022/07/23 08:37:41;;;;;;;25.08;20.58;;;20.60;99.90;;;;;;4903239;29;20090;-79
2022/07/23 08:40:07;;;;;;;0.85;0.40;;;20.60;99.90;;;;;;4899255;29;20079;-79
2022/07/23 08:42:35;;;;;;;2.55;0.10;;;20.50;99.90;;;;;;4891433;29;20134;-79
2022/07/23 08:45:02;;;;;;;1.55;0.10;;;20.30;99.90;;;;;;4916446;29;20372;-79
2022/07/23 08:47:29;;;;;;;0.93;0.20;;;20.20;99.90;;;;;;4890445;29;20083;-79
2022/07/23 08:49:56;;;;;;;1.45;0.10;;;20.20;99.90;;;;;;4900072;29;20063;-80
2022/07/23 08:52:23;;;;;;;0.60;0.10;;;20.10;99.90;;;;;;4905109;29;20571;-80
2022/07/23 08:54:49;;;;;;;0.45;0.10;;;20.00;99.90;;;;;;4904559;29;20079;-80
2022/07/23 08:57:14;;;;;;;0.20;0.10;;;20.30;99.90;;;;;;4912816;29;20036;-82
2022/07/23 08:59:41;;;;;;;0.80;0.10;;;20.40;99.90;;;;;;4911105;29;20099;-82
2022/07/23 09:02:06;;;;;;;0.30;0.10;;;20.50;99.90;;;;;;4911691;29;20431;-81
2022/07/23 09:04:32;;;;;;;0.30;0.13;;;20.60;99.90;;;;;;4897546;29;20036;-81
2022/07/23 09:06:59;;;;;;;0.17;0.10;;;20.90;99.90;;;;;;4912709;29;20040;-81
2022/07/23 09:09:29;;;;;;;0.40;0.10;;;21.20;99.90;;;;;;4890367;29;20040;-81
2022/07/23 09:12:03;;;;;;;1.00;0.10;;;21.40;99.90;;;;;;4895094;29;20048;-81
2022/07/23 09:14:40;;;;;;;0.28;0.03;;;21.70;99.90;;;;;;4900615;29;20031;-81
2022/07/23 09:17:14;;;;;;;0.15;0.00;;;22.10;99.90;;;;;;4902337;29;20047;-81
2022/07/23 09:19:41;;;;;;;0.60;0.00;;;22.60;99.90;;;;;;4899752;29;20055;-81
2022/07/23 09:22:24;;;;;;;0.35;0.10;;;22.70;99.90;;;;;;4881660;29;20457;-80
2022/07/23 09:25:09;;;;;;;0.10;0.08;;;22.40;99.90;;;;;;4913433;29;20071;-82
2022/07/23 09:27:49;;;;;;;;;;;21.80;99.90;;;;;;4906045;29;20103;-81
2022/07/23 09:30:14;;;;;;;1.38;0.10;;;21.40;99.90;;;;;;4914031;29;19943;-82
2022/07/23 09:32:40;;;;;;;0.63;0.10;;;21.50;99.90;;;;;;4923174;29;20036;-82
2022/07/23 09:35:06;;;;;;;0.98;0.05;;;21.90;99.90;;;;;;4908634;29;20050;-81
2022/07/23 09:37:32;;;;;;;0.77;0.10;;;22.60;99.90;;;;;;4915256;29;20036;-80
2022/07/23 09:40:11;;;;;;;0.20;0.10;;;23.00;99.90;;;;;;4910554;29;20102;-81
2022/07/23 09:42:37;;;;;;;0.60;0.10;;;23.50;98.10;;;;;;4907932;29;20098;-81
2022/07/23 09:45:04;;;;;;;0.43;0.10;;;23.80;96.60;;;;;;4910358;29;20062;-82
2022/07/23 09:47:31;;;;;;;0.65;0.00;;;23.90;93.40;;;;;;4919259;29;20051;-81
2022/07/23 09:50:12;;;;;;;0.40;0.00;;;24.20;88.80;;;;;;4912170;29;20050;-82
2022/07/23 09:52:49;;;;;;;0.70;0.20;;;24.30;85.40;;;;;;4900701;29;20051;-82
2022/07/23 09:55:16;;;;;;;0.17;0.00;;;24.00;92.60;;;;;;4910764;29;20516;-81
2022/07/23 09:57:44;;;;;;;0.47;0.10;;;23.80;95.80;;;;;;4910982;29;20047;-82
2022/07/23 10:00:10;;;;;;;0.15;0.10;;;23.70;95.50;;;;;;4886553;29;20056;-82
2022/07/23 10:02:37;;;;;;;0.40;0.03;;;23.70;97.80;;;;;;4903169;29;20087;-82
2022/07/23 10:05:04;;;;;;;0.20;0.10;;;24.00;99.50;;;;;;4899095;29;20436;-81
2022/07/23 10:07:33;;;;;;;0.60;0.10;;;24.30;93.00;;;;;;4913287;29;20162;-82
2022/07/23 10:09:59;;;;;;;0.40;0.10;;;24.50;91.00;;;;;;4921488;29;20402;-81
2022/07/23 10:15:18;;;;;;;10.23;0.70;;;24.50;83.20;;;;;;5069511;23;20064;-75
2022/07/23 10:18:10;;;;;;;;;;;24.20;90.00;;;;;;4877855;29;20127;-76
2022/07/23 10:21:35;;;;;;;0.73;0.20;;;23.90;84.00;;;;;;4897489;29;19926;-75
2022/07/23 10:24:26;;;;;;;2.17;0.20;;;23.90;88.50;;;;;;4852583;29;20120;-75
2022/07/23 10:27:17;;;;;;;0.70;0.10;;;23.90;96.30;;;;;;4890577;29;20144;-75
2022/07/23 10:29:59;;;;;;;1.23;0.10;;;24.00;95.30;;;;;;4890700;29;20135;-75
2022/07/23 10:33:01;;;;;;;0.98;0.10;;;23.90;90.00;;;;;;4896158;29;20052;-76
2022/07/23 10:35:39;;;;;;;2.15;0.20;;;23.60;93.10;;;;;;4877843;29;20134;-75
2022/07/23 10:38:29;;;;;;;0.95;0.10;;;23.80;94.50;;;;;;4884631;29;20040;-76
2022/07/23 10:41:39;;;;;;;1.15;0.10;;;24.10;93.00;;;;;;4886126;29;20068;-75
2022/07/23 10:44:20;;;;;;;0.80;0.10;;;24.20;91.60;;;;;;4890608;29;20045;-75
2022/07/23 10:49:46;;;;;;;2.95;0.20;;;24.80;91.70;;;;;;4906111;29;20131;-75
2022/07/23 10:56:12;;;;;;;0.47;0.10;;;25.20;76.80;;;;;;4954059;23;20464;-75
2022/07/23 10:59:51;;;;;;;1.30;0.10;;;25.00;85.10;;;;;;4909786;29;20044;-76
2022/07/23 11:05:45;;;;;;;0.73;0.10;;;24.80;94.40;;;;;;4963326;23;20130;-75
2022/07/23 11:08:17;;;;;;;2.30;0.40;;;24.80;84.40;;;;;;4906846;29;20039;-75
2022/07/23 11:10:47;;;;;;;1.65;0.10;;;24.50;86.70;;;;;;4904413;29;20135;-75
2022/07/23 11:13:48;;;;;;;3.47;0.13;;;24.30;92.60;;;;;;4889003;29;20677;-75
2022/07/23 11:16:21;;;;;;;1.10;0.32;;;24.30;90.20;;;;;;4904752;29;20076;-76
2022/07/23 11:18:47;;;;;;;1.00;0.30;;;24.10;90.80;;;;;;4889435;29;20054;-75
2022/07/23 11:21:37;;;;;;;0.80;0.10;;;24.10;93.70;;;;;;4907481;29;20055;-76
2022/07/23 11:24:23;;;;;;;0.45;0.10;;;24.30;94.10;;;;;;4897100;29;20039;-75
2022/07/23 11:27:00;;;;;;;4.15;0.30;;;24.50;92.00;;;;;;4901560;29;20053;-76
2022/07/23 11:29:31;;;;;;;2.53;0.20;;;24.50;92.00;;;;;;4880293;29;20040;-76
2022/07/23 11:32:19;;;;;;;3.13;1.33;;;24.60;92.60;;;;;;4890634;29;20044;-76
2022/07/23 11:35:27;;;;;;;3.08;0.45;;;24.80;92.20;;;;;;4900198;29;20423;-76
2022/07/23 11:38:06;;;;;;;2.00;0.50;;;24.80;88.80;;;;;;4887776;29;20139;-75
2022/07/23 11:40:34;;;;;;;1.67;0.20;;;24.60;89.40;;;;;;4888340;29;20041;-75
2022/07/23 11:43:22;;;;;;;2.08;0.20;;;24.60;92.60;;;;;;4886840;29;20486;-75
2022/07/23 11:46:57;;;;;;;1.73;0.20;;;24.60;91.20;;;;;;4902606;29;20056;-76
2022/07/23 11:49:37;;;;;;;3.80;0.57;;;24.60;90.10;;;;;;4888828;29;20561;-76
2022/07/23 11:52:32;;;;;;;0.22;0.10;;;24.70;92.00;;;;;;4889167;29;20110;-75
2022/07/23 11:55:25;;;;;;;1.13;0.20;;;25.00;90.60;;;;;;4869175;29;20534;-76
2022/07/23 11:58:00;;;;;;;1.08;0.20;;;25.10;84.30;;;;;;4881696;29;20091;-76
2022/07/23 12:00:30;;;;;;;0.98;0.30;;;25.10;91.90;;;;;;4866529;29;20043;-75
2022/07/23 12:03:22;;;;;;;2.55;0.20;;;25.20;90.70;;;;;;4859347;29;20037;-75
2022/07/23 12:05:57;;;;;;;0.88;0.20;;;25.30;80.70;;;;;;4867543;29;20525;-75
2022/07/23 12:08:23;;;;;;;0.60;0.20;;;25.00;85.50;;;;;;4871738;29;20073;-76
2022/07/23 12:10:48;;;;;;;1.45;0.40;;;24.90;86.60;;;;;;4869683;29;20052;-76
2022/07/23 12:13:44;;;;;;;0.90;0.30;;;25.20;87.80;;;;;;4863928;29;20052;-75
2022/07/23 12:16:31;;;;;;;1.20;0.20;;;25.40;85.40;;;;;;4871201;29;20130;-74
2022/07/23 12:18:57;;;;;;;2.10;0.35;;;25.70;89.80;;;;;;4871608;29;20036;-76
2022/07/23 12:21:22;;;;;;;0.70;0.28;;;25.60;89.50;;;;;;4886072;29;20044;-75
2022/07/23 12:23:49;;;;;;;1.55;0.70;;;25.50;87.30;;;;;;4869627;29;20044;-76
2022/07/23 12:26:16;;;;;;;0.90;0.30;;;25.40;84.80;;;;;;4869129;29;20402;-77
2022/07/23 12:31:44;;;;;;;0.77;0.20;;;25.80;86.00;;;;;;4880686;29;20053;-75
2022/07/23 12:34:21;;;;;;;1.02;0.20;;;25.80;81.00;;;;;;4869838;29;20104;-76
2022/07/23 12:36:47;;;;;;;1.15;0.30;;;25.40;82.70;;;;;;4869016;29;20558;-76
2022/07/23 12:39:35;;;;;;;1.35;0.20;;;25.40;85.40;;;;;;4869744;29;20032;-77
2022/07/23 12:42:31;;;;;;;1.00;0.20;;;25.80;79.20;;;;;;4867591;29;20059;-77
2022/07/23 12:45:16;;;;;;;2.40;0.30;;;25.70;82.30;;;;;;4862011;29;20487;-74
2022/07/23 12:48:05;;;;;;;2.40;0.20;;;25.40;79.30;;;;;;4870758;29;20049;-75
2022/07/23 12:50:40;;;;;;;1.70;0.20;;;25.50;79.50;;;;;;4884511;29;20419;-75
2022/07/23 12:53:39;;;;;;;1.60;0.28;;;25.80;81.40;;;;;;4870645;29;20043;-76
2022/07/23 12:56:40;;;;;;;1.98;0.88;;;26.00;78.30;;;;;;4865907;29;20067;-76
2022/07/23 12:59:30;;;;;;;1.10;0.20;;;26.00;76.90;;;;;;4881651;29;20041;-76
2022/07/23 13:01:59;;;;;;;0.90;0.20;;;25.50;80.80;;;;;;4887888;29;20096;-76
2022/07/23 13:04:26;;;;;;;1.52;0.30;;;25.70;89.80;;;;;;4871350;29;20508;-76
2022/07/23 13:06:58;;;;;;;1.27;0.32;;;26.10;88.60;;;;;;4869346;29;20063;-77
2022/07/23 13:17:05;;;;;;;3.13;0.25;;;26.50;80.10;;;;;;4864174;29;20109;-77
2022/07/23 13:19:46;;;;;;;1.75;0.20;;;26.80;70.90;;;;;;4880230;29;20048;-76
2022/07/23 13:22:50;;;;;;;1.55;0.20;;;26.70;74.50;;;;;;4903054;29;20055;-77
2022/07/23 13:25:25;;;;;;;3.13;0.28;;;26.50;72.40;;;;;;4886132;29;20112;-77
2022/07/23 13:28:04;;;;;;;0.75;0.20;;;26.20;77.80;;;;;;4884429;29;20040;-77
2022/07/23 13:30:49;;;;;;;1.17;0.25;;;26.40;78.10;;;;;;4891967;29;20048;-76
2022/07/23 13:33:34;;;;;;;0.40;0.10;;;26.80;75.60;;;;;;4888093;29;20036;-76
2022/07/23 13:36:10;;;;;;;1.10;0.25;;;26.70;74.90;;;;;;4874448;29;20076;-76
2022/07/23 13:39:34;;;;;;;1.52;0.20;;;26.70;79.50;;;;;;4892450;29;20044;-77
2022/07/23 13:42:15;;;;;;;0.85;0.30;;;26.40;79.10;;;;;;4873316;29;20083;-76
2022/07/23 13:45:24;;;;;;;2.05;0.40;;;25.90;81.30;;;;;;4872570;29;20052;-77
2022/07/23 13:48:16;;;;;;;1.52;0.25;;;25.60;82.40;;;;;;4896200;29;20071;-76
2022/07/23 13:51:17;;;;;;;1.50;0.20;;;25.80;92.00;;;;;;4870728;29;20100;-76
2022/07/23 13:54:34;;;;;;;1.38;0.30;;;25.80;84.90;;;;;;4885760;29;20062;-76
2022/07/23 13:57:20;;;;;;;1.83;0.20;;;25.80;90.30;;;;;;4864763;29;20499;-77
2022/07/23 14:00:22;;;;;;;1.35;0.30;;;25.50;90.00;;;;;;4874333;29;20052;-77
2022/07/23 14:03:03;;;;;;;0.68;0.20;;;25.20;92.20;;;;;;4881852;29;20065;-76
2022/07/23 14:05:53;;;;;;;0.35;0.20;;;24.80;96.00;;;;;;4897709;29;20104;-77
2022/07/23 14:08:41;;;;;;;2.15;0.20;;;24.80;95.80;;;;;;4858498;29;20044;-76
2022/07/23 14:11:07;;;;;;;1.83;0.30;;;24.80;99.60;;;;;;4888301;29;20495;-76
2022/07/23 14:13:33;;;;;;;1.42;0.20;;;25.00;97.90;;;;;;4871230;29;20049;-76
2022/07/23 14:15:59;;;;;;;3.20;0.45;;;25.60;94.00;;;;;;4872520;29;20045;-76
2022/07/23 14:18:27;;;;;;;1.42;0.20;;;26.00;93.60;;;;;;4858442;29;19924;-77
2022/07/23 14:20:53;;;;;;;0.85;0.20;;;26.70;89.40;;;;;;4873408;29;20041;-76
2022/07/23 14:23:50;;;;;;;0.90;0.40;;;27.50;81.40;;;;;;4872915;29;20040;-76